sensor_id;sensor_type;location;lat;lon;timestamp;P1;durP1;ratioP1;P2;durP2;ratioP2
65172;SDS011;51758;52.218;5.172;2023-03-01T00:01:17;19.02;;;13.63;;
65172;SDS011;51758;52.218;5.172;2023-03-01T00:03:46;18.17;;;13.03;;
65172;SDS011;51758;52.218;5.172;2023-03-01T00:06:14;18.58;;;12.70;;
65172;SDS011;51758;52.218;5.172;2023-03-01T00:08:42;18.77;;;12.88;;
65172;SDS011;51758;52.218;5.172;2023-03-01T00:11:11;18.07;;;12.77;;
65172;SDS011;51758;52.218;5.172;2023-03-01T00:13:42;19.40;;;13.33;;
65172;SDS011;51758;52.218;5.172;2023-03-01T00:16:12;20.50;;;13.27;;
65172;SDS011;51758;52.218;5.172;2023-03-01T00:18:41;15.87;;;11.63;;
65172;SDS011;51758;52.218;5.172;2023-03-01T00:21:09;15.77;;;12.47;;
65172;SDS011;51758;52.218;5.172;2023-03-01T00:23:37;16.55;;;12.45;;
65172;SDS011;51758;52.218;5.172;2023-03-01T00:26:06;17.05;;;12.95;;
65172;SDS011;51758;52.218;5.172;2023-03-01T00:28:34;16.70;;;12.87;;
65172;SDS011;51758;52.218;5.172;2023-03-01T00:31:04;20.20;;;13.43;;
65172;SDS011;51758;52.218;5.172;2023-03-01T00:33:33;17.57;;;13.83;;
65172;SDS011;51758;52.218;5.172;2023-03-01T00:36:01;19.27;;;13.40;;
65172;SDS011;51758;52.218;5.172;2023-03-01T00:38:29;19.00;;;13.73;;
65172;SDS011;51758;52.218;5.172;2023-03-01T00:41:02;19.75;;;13.98;;
65172;SDS011;51758;52.218;5.172;2023-03-01T00:43:31;22.47;;;13.30;;
65172;SDS011;51758;52.218;5.172;2023-03-01T00:46:02;19.63;;;14.13;;
65172;SDS011;51758;52.218;5.172;2023-03-01T00:48:32;19.10;;;14.17;;
65172;SDS011;51758;52.218;5.172;2023-03-01T00:51:04;21.50;;;14.98;;
65172;SDS011;51758;52.218;5.172;2023-03-01T00:53:32;19.43;;;14.60;;
65172;SDS011;51758;52.218;5.172;2023-03-01T00:56:00;21.27;;;14.30;;
65172;SDS011;51758;52.218;5.172;2023-03-01T00:58:28;20.20;;;14.53;;
65172;SDS011;51758;52.218;5.172;2023-03-01T01:00:56;20.00;;;15.10;;
65172;SDS011;51758;52.218;5.172;2023-03-01T01:03:25;19.53;;;14.77;;
65172;SDS011;51758;52.218;5.172;2023-03-01T01:05:53;23.93;;;15.63;;
65172;SDS011;51758;52.218;5.172;2023-03-01T01:08:21;19.73;;;15.43;;
65172;SDS011;51758;52.218;5.172;2023-03-01T01:10:49;22.80;;;15.70;;
65172;SDS011;51758;52.218;5.172;2023-03-01T01:13:16;20.87;;;14.73;;
65172;SDS011;51758;52.218;5.172;2023-03-01T01:18:13;20.83;;;14.33;;
65172;SDS011;51758;52.218;5.172;2023-03-01T01:20:42;19.10;;;12.93;;
65172;SDS011;51758;52.218;5.172;2023-03-01T01:23:10;19.17;;;13.83;;
65172;SDS011;51758;52.218;5.172;2023-03-01T01:25:37;17.00;;;12.40;;
65172;SDS011;51758;52.218;5.172;2023-03-01T01:28:05;22.43;;;14.77;;
65172;SDS011;51758;52.218;5.172;2023-03-01T01:30:33;17.90;;;12.87;;
65172;SDS011;51758;52.218;5.172;2023-03-01T01:33:00;17.13;;;12.83;;
65172;SDS011;51758;52.218;5.172;2023-03-01T01:35:28;18.03;;;12.83;;
65172;SDS011;51758;52.218;5.172;2023-03-01T01:37:57;19.93;;;13.73;;
65172;SDS011;51758;52.218;5.172;2023-03-01T01:40:25;19.97;;;14.03;;
65172;SDS011;51758;52.218;5.172;2023-03-01T01:42:53;20.50;;;14.17;;
65172;SDS011;51758;52.218;5.172;2023-03-01T01:45:28;18.67;;;13.07;;
65172;SDS011;51758;52.218;5.172;2023-03-01T01:47:59;16.23;;;12.10;;
65172;SDS011;51758;52.218;5.172;2023-03-01T01:50:31;18.47;;;13.33;;
65172;SDS011;51758;52.218;5.172;2023-03-01T01:53:06;18.60;;;13.80;;
65172;SDS011;51758;52.218;5.172;2023-03-01T01:55:39;18.87;;;13.93;;
65172;SDS011;51758;52.218;5.172;2023-03-01T01:58:10;17.23;;;13.47;;
65172;SDS011;51758;52.218;5.172;2023-03-01T02:00:41;17.13;;;13.33;;
65172;SDS011;51758;52.218;5.172;2023-03-01T02:03:10;22.30;;;14.60;;
65172;SDS011;51758;52.218;5.172;2023-03-01T02:05:42;19.63;;;13.93;;
65172;SDS011;51758;52.218;5.172;2023-03-01T02:08:23;18.07;;;13.37;;
65172;SDS011;51758;52.218;5.172;2023-03-01T02:10:54;19.70;;;13.60;;
65172;SDS011;51758;52.218;5.172;2023-03-01T02:13:23;17.50;;;12.77;;
65172;SDS011;51758;52.218;5.172;2023-03-01T02:15:51;17.80;;;13.60;;
65172;SDS011;51758;52.218;5.172;2023-03-01T02:18:20;22.15;;;14.23;;
65172;SDS011;51758;52.218;5.172;2023-03-01T02:20:52;18.93;;;13.87;;
65172;SDS011;51758;52.218;5.172;2023-03-01T02:23:32;20.37;;;14.00;;
65172;SDS011;51758;52.218;5.172;2023-03-01T02:26:03;20.43;;;15.07;;
65172;SDS011;51758;52.218;5.172;2023-03-01T02:28:36;19.43;;;12.87;;
65172;SDS011;51758;52.218;5.172;2023-03-01T02:31:06;18.80;;;13.77;;
65172;SDS011;51758;52.218;5.172;2023-03-01T02:33:53;16.03;;;12.27;;
65172;SDS011;51758;52.218;5.172;2023-03-01T02:36:21;20.05;;;13.98;;
65172;SDS011;51758;52.218;5.172;2023-03-01T02:38:52;18.67;;;13.33;;
65172;SDS011;51758;52.218;5.172;2023-03-01T02:41:23;18.30;;;13.80;;
65172;SDS011;51758;52.218;5.172;2023-03-01T02:43:54;19.43;;;14.53;;
65172;SDS011;51758;52.218;5.172;2023-03-01T02:46:24;18.07;;;14.23;;
65172;SDS011;51758;52.218;5.172;2023-03-01T02:48:53;19.33;;;14.80;;
65172;SDS011;51758;52.218;5.172;2023-03-01T02:51:31;18.80;;;13.87;;
65172;SDS011;51758;52.218;5.172;2023-03-01T02:54:15;18.13;;;13.20;;
65172;SDS011;51758;52.218;5.172;2023-03-01T02:56:52;18.60;;;13.60;;
65172;SDS011;51758;52.218;5.172;2023-03-01T02:59:24;16.13;;;13.10;;
65172;SDS011;51758;52.218;5.172;2023-03-01T03:01:54;24.13;;;15.57;;
65172;SDS011;51758;52.218;5.172;2023-03-01T03:04:22;17.90;;;12.70;;
65172;SDS011;51758;52.218;5.172;2023-03-01T03:06:50;17.15;;;12.77;;
65172;SDS011;51758;52.218;5.172;2023-03-01T03:09:18;16.10;;;12.73;;
65172;SDS011;51758;52.218;5.172;2023-03-01T03:11:46;19.65;;;13.13;;
65172;SDS011;51758;52.218;5.172;2023-03-01T03:14:15;19.35;;;12.82;;
65172;SDS011;51758;52.218;5.172;2023-03-01T03:16:45;20.83;;;14.00;;
65172;SDS011;51758;52.218;5.172;2023-03-01T03:19:14;20.10;;;13.07;;
65172;SDS011;51758;52.218;5.172;2023-03-01T03:21:43;19.63;;;13.73;;
65172;SDS011;51758;52.218;5.172;2023-03-01T03:24:10;21.97;;;14.27;;
65172;SDS011;51758;52.218;5.172;2023-03-01T03:26:38;23.53;;;14.90;;
65172;SDS011;51758;52.218;5.172;2023-03-01T03:29:06;20.83;;;15.23;;
65172;SDS011;51758;52.218;5.172;2023-03-01T03:31:33;22.17;;;15.63;;
65172;SDS011;51758;52.218;5.172;2023-03-01T03:34:03;21.10;;;13.70;;
65172;SDS011;51758;52.218;5.172;2023-03-01T03:36:30;21.23;;;13.93;;
65172;SDS011;51758;52.218;5.172;2023-03-01T03:38:58;20.63;;;14.50;;
65172;SDS011;51758;52.218;5.172;2023-03-01T03:41:26;20.10;;;14.10;;
65172;SDS011;51758;52.218;5.172;2023-03-01T03:43:53;20.87;;;14.23;;
65172;SDS011;51758;52.218;5.172;2023-03-01T03:46:21;20.53;;;14.43;;
65172;SDS011;51758;52.218;5.172;2023-03-01T03:48:49;21.00;;;14.20;;
65172;SDS011;51758;52.218;5.172;2023-03-01T03:51:18;21.33;;;14.00;;
65172;SDS011;51758;52.218;5.172;2023-03-01T03:53:48;20.10;;;14.07;;
65172;SDS011;51758;52.218;5.172;2023-03-01T03:56:16;20.37;;;14.13;;
65172;SDS011;51758;52.218;5.172;2023-03-01T03:58:44;23.90;;;15.50;;
65172;SDS011;51758;52.218;5.172;2023-03-01T04:01:12;21.27;;;13.73;;
65172;SDS011;51758;52.218;5.172;2023-03-01T04:03:39;20.87;;;13.30;;
65172;SDS011;51758;52.218;5.172;2023-03-01T04:06:12;21.70;;;14.10;;
65172;SDS011;51758;52.218;5.172;2023-03-01T04:08:42;18.98;;;13.75;;
65172;SDS011;51758;52.218;5.172;2023-03-01T04:11:09;20.90;;;13.83;;
65172;SDS011;51758;52.218;5.172;2023-03-01T04:13:54;20.97;;;14.17;;
65172;SDS011;51758;52.218;5.172;2023-03-01T04:16:23;23.37;;;14.77;;
65172;SDS011;51758;52.218;5.172;2023-03-01T04:18:51;24.50;;;15.45;;
65172;SDS011;51758;52.218;5.172;2023-03-01T04:21:20;20.57;;;13.97;;
65172;SDS011;51758;52.218;5.172;2023-03-01T04:23:49;20.55;;;13.65;;
65172;SDS011;51758;52.218;5.172;2023-03-01T04:26:19;23.67;;;14.03;;
65172;SDS011;51758;52.218;5.172;2023-03-01T04:28:47;18.83;;;13.48;;
65172;SDS011;51758;52.218;5.172;2023-03-01T04:31:17;21.00;;;13.70;;
65172;SDS011;51758;52.218;5.172;2023-03-01T04:33:48;18.67;;;13.20;;
65172;SDS011;51758;52.218;5.172;2023-03-01T04:36:19;17.67;;;12.60;;
65172;SDS011;51758;52.218;5.172;2023-03-01T04:38:50;17.33;;;12.70;;
65172;SDS011;51758;52.218;5.172;2023-03-01T04:41:19;18.10;;;12.67;;
65172;SDS011;51758;52.218;5.172;2023-03-01T04:43:49;17.73;;;13.33;;
65172;SDS011;51758;52.218;5.172;2023-03-01T04:46:17;22.00;;;14.52;;
65172;SDS011;51758;52.218;5.172;2023-03-01T04:48:47;17.67;;;12.55;;
65172;SDS011;51758;52.218;5.172;2023-03-01T04:51:15;22.13;;;14.57;;
65172;SDS011;51758;52.218;5.172;2023-03-01T04:53:44;20.50;;;14.40;;
65172;SDS011;51758;52.218;5.172;2023-03-01T04:56:13;20.15;;;14.63;;
65172;SDS011;51758;52.218;5.172;2023-03-01T04:58:42;20.95;;;14.85;;
65172;SDS011;51758;52.218;5.172;2023-03-01T05:01:10;20.90;;;14.67;;
65172;SDS011;51758;52.218;5.172;2023-03-01T05:03:42;21.30;;;14.50;;
65172;SDS011;51758;52.218;5.172;2023-03-01T05:06:10;22.52;;;15.73;;
65172;SDS011;51758;52.218;5.172;2023-03-01T05:08:38;21.88;;;15.65;;
65172;SDS011;51758;52.218;5.172;2023-03-01T05:11:07;22.70;;;14.30;;
65172;SDS011;51758;52.218;5.172;2023-03-01T05:13:37;21.67;;;15.30;;
65172;SDS011;51758;52.218;5.172;2023-03-01T05:16:06;19.23;;;13.98;;
65172;SDS011;51758;52.218;5.172;2023-03-01T05:18:37;18.30;;;14.07;;
65172;SDS011;51758;52.218;5.172;2023-03-01T05:21:06;21.67;;;13.52;;
65172;SDS011;51758;52.218;5.172;2023-03-01T05:23:36;18.97;;;13.87;;
65172;SDS011;51758;52.218;5.172;2023-03-01T05:26:06;22.15;;;13.50;;
65172;SDS011;51758;52.218;5.172;2023-03-01T05:28:52;18.05;;;13.73;;
65172;SDS011;51758;52.218;5.172;2023-03-01T05:31:24;20.80;;;14.30;;
65172;SDS011;51758;52.218;5.172;2023-03-01T05:33:52;20.73;;;13.73;;
65172;SDS011;51758;52.218;5.172;2023-03-01T05:36:20;22.52;;;15.02;;
65172;SDS011;51758;52.218;5.172;2023-03-01T05:38:48;21.30;;;15.20;;
65172;SDS011;51758;52.218;5.172;2023-03-01T05:41:15;21.83;;;14.43;;
65172;SDS011;51758;52.218;5.172;2023-03-01T05:43:44;23.10;;;15.13;;
65172;SDS011;51758;52.218;5.172;2023-03-01T05:46:13;22.08;;;14.90;;
65172;SDS011;51758;52.218;5.172;2023-03-01T05:48:41;21.80;;;15.23;;
65172;SDS011;51758;52.218;5.172;2023-03-01T05:51:09;22.33;;;15.38;;
65172;SDS011;51758;52.218;5.172;2023-03-01T05:53:38;22.70;;;15.70;;
65172;SDS011;51758;52.218;5.172;2023-03-01T05:56:06;20.40;;;14.65;;
65172;SDS011;51758;52.218;5.172;2023-03-01T05:58:33;25.48;;;16.17;;
65172;SDS011;51758;52.218;5.172;2023-03-01T06:01:01;22.08;;;15.38;;
65172;SDS011;51758;52.218;5.172;2023-03-01T06:03:30;24.95;;;16.02;;
65172;SDS011;51758;52.218;5.172;2023-03-01T06:05:58;23.27;;;16.15;;
65172;SDS011;51758;52.218;5.172;2023-03-01T06:08:25;28.08;;;17.90;;
65172;SDS011;51758;52.218;5.172;2023-03-01T06:10:54;21.95;;;16.48;;
65172;SDS011;51758;52.218;5.172;2023-03-01T06:13:22;24.23;;;16.33;;
65172;SDS011;51758;52.218;5.172;2023-03-01T06:15:50;24.50;;;17.15;;
65172;SDS011;51758;52.218;5.172;2023-03-01T06:18:18;23.88;;;16.08;;
65172;SDS011;51758;52.218;5.172;2023-03-01T06:20:52;25.17;;;16.50;;
65172;SDS011;51758;52.218;5.172;2023-03-01T06:23:20;25.30;;;16.38;;
65172;SDS011;51758;52.218;5.172;2023-03-01T06:25:48;28.63;;;16.88;;
65172;SDS011;51758;52.218;5.172;2023-03-01T06:28:16;25.33;;;16.00;;
65172;SDS011;51758;52.218;5.172;2023-03-01T06:30:44;24.95;;;15.65;;
65172;SDS011;51758;52.218;5.172;2023-03-01T06:33:12;24.50;;;16.08;;
65172;SDS011;51758;52.218;5.172;2023-03-01T06:35:39;24.17;;;16.48;;
65172;SDS011;51758;52.218;5.172;2023-03-01T06:38:09;23.95;;;16.30;;
65172;SDS011;51758;52.218;5.172;2023-03-01T06:40:36;25.25;;;17.08;;
65172;SDS011;51758;52.218;5.172;2023-03-01T06:43:04;21.60;;;15.25;;
65172;SDS011;51758;52.218;5.172;2023-03-01T06:45:33;27.27;;;17.33;;
65172;SDS011;51758;52.218;5.172;2023-03-01T06:48:01;23.25;;;16.90;;
65172;SDS011;51758;52.218;5.172;2023-03-01T06:50:30;24.73;;;17.37;;
65172;SDS011;51758;52.218;5.172;2023-03-01T06:52:58;33.55;;;19.55;;
65172;SDS011;51758;52.218;5.172;2023-03-01T06:55:27;26.48;;;18.80;;
65172;SDS011;51758;52.218;5.172;2023-03-01T06:57:55;27.45;;;17.63;;
65172;SDS011;51758;52.218;5.172;2023-03-01T07:00:24;26.85;;;17.88;;
65172;SDS011;51758;52.218;5.172;2023-03-01T07:02:52;29.20;;;19.52;;
65172;SDS011;51758;52.218;5.172;2023-03-01T07:05:20;28.88;;;18.77;;
65172;SDS011;51758;52.218;5.172;2023-03-01T07:07:48;31.83;;;19.80;;
65172;SDS011;51758;52.218;5.172;2023-03-01T07:10:15;29.67;;;19.57;;
65172;SDS011;51758;52.218;5.172;2023-03-01T07:12:45;34.95;;;20.42;;
65172;SDS011;51758;52.218;5.172;2023-03-01T07:15:13;29.05;;;19.50;;
65172;SDS011;51758;52.218;5.172;2023-03-01T07:17:41;27.23;;;17.38;;
65172;SDS011;51758;52.218;5.172;2023-03-01T07:20:11;33.63;;;19.80;;
65172;SDS011;51758;52.218;5.172;2023-03-01T07:22:39;31.60;;;19.75;;
65172;SDS011;51758;52.218;5.172;2023-03-01T07:25:08;32.10;;;20.47;;
65172;SDS011;51758;52.218;5.172;2023-03-01T07:27:36;35.65;;;21.70;;
65172;SDS011;51758;52.218;5.172;2023-03-01T07:30:06;37.07;;;23.27;;
65172;SDS011;51758;52.218;5.172;2023-03-01T07:32:35;37.23;;;23.23;;
65172;SDS011;51758;52.218;5.172;2023-03-01T07:35:03;36.88;;;22.63;;
65172;SDS011;51758;52.218;5.172;2023-03-01T07:37:31;38.22;;;24.15;;
65172;SDS011;51758;52.218;5.172;2023-03-01T07:39:59;38.10;;;24.83;;
65172;SDS011;51758;52.218;5.172;2023-03-01T07:42:27;41.83;;;25.20;;
65172;SDS011;51758;52.218;5.172;2023-03-01T07:44:54;40.33;;;24.67;;
65172;SDS011;51758;52.218;5.172;2023-03-01T07:47:24;36.80;;;23.10;;
65172;SDS011;51758;52.218;5.172;2023-03-01T07:49:51;38.17;;;23.80;;
65172;SDS011;51758;52.218;5.172;2023-03-01T07:52:19;44.43;;;26.40;;
65172;SDS011;51758;52.218;5.172;2023-03-01T07:54:47;40.67;;;23.70;;
65172;SDS011;51758;52.218;5.172;2023-03-01T07:57:15;38.50;;;23.93;;
65172;SDS011;51758;52.218;5.172;2023-03-01T07:59:42;40.23;;;23.20;;
65172;SDS011;51758;52.218;5.172;2023-03-01T08:02:10;36.17;;;23.30;;
65172;SDS011;51758;52.218;5.172;2023-03-01T08:04:39;32.67;;;21.60;;
65172;SDS011;51758;52.218;5.172;2023-03-01T08:07:07;34.57;;;22.33;;
65172;SDS011;51758;52.218;5.172;2023-03-01T08:09:35;33.75;;;21.60;;
65172;SDS011;51758;52.218;5.172;2023-03-01T08:12:04;35.17;;;21.73;;
65172;SDS011;51758;52.218;5.172;2023-03-01T08:17:00;31.40;;;19.73;;
65172;SDS011;51758;52.218;5.172;2023-03-01T08:19:29;30.23;;;20.00;;
65172;SDS011;51758;52.218;5.172;2023-03-01T08:21:58;27.95;;;17.98;;
65172;SDS011;51758;52.218;5.172;2023-03-01T08:24:26;25.23;;;16.93;;
65172;SDS011;51758;52.218;5.172;2023-03-01T08:26:54;25.70;;;16.57;;
65172;SDS011;51758;52.218;5.172;2023-03-01T08:29:23;25.02;;;16.52;;
65172;SDS011;51758;52.218;5.172;2023-03-01T08:31:51;25.60;;;17.13;;
65172;SDS011;51758;52.218;5.172;2023-03-01T08:34:19;27.23;;;17.27;;
65172;SDS011;51758;52.218;5.172;2023-03-01T08:36:47;24.67;;;16.30;;
65172;SDS011;51758;52.218;5.172;2023-03-01T08:39:18;23.03;;;14.90;;
65172;SDS011;51758;52.218;5.172;2023-03-01T08:41:47;23.17;;;14.80;;
65172;SDS011;51758;52.218;5.172;2023-03-01T08:44:15;24.77;;;15.27;;
65172;SDS011;51758;52.218;5.172;2023-03-01T08:46:43;22.17;;;14.90;;
65172;SDS011;51758;52.218;5.172;2023-03-01T08:49:12;19.42;;;13.27;;
65172;SDS011;51758;52.218;5.172;2023-03-01T08:51:42;21.53;;;13.07;;
65172;SDS011;51758;52.218;5.172;2023-03-01T08:56:40;18.05;;;11.82;;
65172;SDS011;51758;52.218;5.172;2023-03-01T08:59:09;18.07;;;12.77;;
65172;SDS011;51758;52.218;5.172;2023-03-01T09:01:37;22.27;;;13.73;;
65172;SDS011;51758;52.218;5.172;2023-03-01T09:06:33;20.00;;;13.53;;
65172;SDS011;51758;52.218;5.172;2023-03-01T09:09:02;18.60;;;12.97;;
65172;SDS011;51758;52.218;5.172;2023-03-01T09:11:32;18.10;;;13.33;;
65172;SDS011;51758;52.218;5.172;2023-03-01T09:14:01;16.20;;;11.93;;
65172;SDS011;51758;52.218;5.172;2023-03-01T09:16:32;17.80;;;12.37;;
65172;SDS011;51758;52.218;5.172;2023-03-01T09:19:02;17.23;;;12.20;;
65172;SDS011;51758;52.218;5.172;2023-03-01T09:21:30;13.73;;;10.45;;
65172;SDS011;51758;52.218;5.172;2023-03-01T09:24:06;14.80;;;10.67;;
65172;SDS011;51758;52.218;5.172;2023-03-01T09:26:38;14.20;;;9.60;;
65172;SDS011;51758;52.218;5.172;2023-03-01T09:29:08;12.93;;;9.47;;
65172;SDS011;51758;52.218;5.172;2023-03-01T09:31:36;11.53;;;8.40;;
65172;SDS011;51758;52.218;5.172;2023-03-01T09:34:04;14.85;;;8.80;;
65172;SDS011;51758;52.218;5.172;2023-03-01T09:36:32;12.93;;;8.57;;
65172;SDS011;51758;52.218;5.172;2023-03-01T09:39:00;15.73;;;9.90;;
65172;SDS011;51758;52.218;5.172;2023-03-01T09:41:37;13.80;;;9.25;;
65172;SDS011;51758;52.218;5.172;2023-03-01T09:44:20;16.47;;;10.43;;
65172;SDS011;51758;52.218;5.172;2023-03-01T09:46:57;15.53;;;10.30;;
65172;SDS011;51758;52.218;5.172;2023-03-01T09:49:27;13.95;;;9.50;;
65172;SDS011;51758;52.218;5.172;2023-03-01T09:51:59;15.87;;;9.97;;
65172;SDS011;51758;52.218;5.172;2023-03-01T09:54:30;13.33;;;9.70;;
65172;SDS011;51758;52.218;5.172;2023-03-01T09:57:05;15.03;;;9.63;;
65172;SDS011;51758;52.218;5.172;2023-03-01T09:59:46;14.57;;;9.30;;
65172;SDS011;51758;52.218;5.172;2023-03-01T10:02:27;13.57;;;9.43;;
65172;SDS011;51758;52.218;5.172;2023-03-01T10:05:04;17.60;;;9.43;;
65172;SDS011;51758;52.218;5.172;2023-03-01T10:07:43;14.53;;;8.83;;
65172;SDS011;51758;52.218;5.172;2023-03-01T10:10:28;12.07;;;8.60;;
65172;SDS011;51758;52.218;5.172;2023-03-01T10:12:59;13.37;;;8.80;;
65172;SDS011;51758;52.218;5.172;2023-03-01T10:15:34;10.43;;;7.53;;
65172;SDS011;51758;52.218;5.172;2023-03-01T10:18:09;10.17;;;7.43;;
65172;SDS011;51758;52.218;5.172;2023-03-01T10:20:43;9.93;;;7.13;;
65172;SDS011;51758;52.218;5.172;2023-03-01T10:23:16;9.87;;;6.27;;
65172;SDS011;51758;52.218;5.172;2023-03-01T10:25:46;8.83;;;6.20;;
65172;SDS011;51758;52.218;5.172;2023-03-01T10:28:25;10.50;;;5.73;;
65172;SDS011;51758;52.218;5.172;2023-03-01T10:30:58;9.50;;;5.70;;
65172;SDS011;51758;52.218;5.172;2023-03-01T10:33:27;8.13;;;5.43;;
65172;SDS011;51758;52.218;5.172;2023-03-01T10:35:57;9.93;;;5.03;;
65172;SDS011;51758;52.218;5.172;2023-03-01T10:38:25;6.90;;;4.93;;
65172;SDS011;51758;52.218;5.172;2023-03-01T10:40:56;8.03;;;5.70;;
65172;SDS011;51758;52.218;5.172;2023-03-01T10:43:26;9.07;;;5.63;;
65172;SDS011;51758;52.218;5.172;2023-03-01T10:45:59;6.73;;;5.20;;
65172;SDS011;51758;52.218;5.172;2023-03-01T10:48:28;8.30;;;5.57;;
65172;SDS011;51758;52.218;5.172;2023-03-01T10:51:04;8.63;;;4.90;;
65172;SDS011;51758;52.218;5.172;2023-03-01T10:53:34;6.05;;;4.72;;
65172;SDS011;51758;52.218;5.172;2023-03-01T10:56:04;7.17;;;4.87;;
65172;SDS011;51758;52.218;5.172;2023-03-01T10:58:34;9.20;;;4.97;;
65172;SDS011;51758;52.218;5.172;2023-03-01T11:01:06;7.60;;;5.20;;
65172;SDS011;51758;52.218;5.172;2023-03-01T11:04:03;7.83;;;5.30;;
65172;SDS011;51758;52.218;5.172;2023-03-01T11:06:37;6.53;;;4.40;;
65172;SDS011;51758;52.218;5.172;2023-03-01T11:09:13;6.87;;;4.80;;
65172;SDS011;51758;52.218;5.172;2023-03-01T11:11:42;6.10;;;4.90;;
65172;SDS011;51758;52.218;5.172;2023-03-01T11:14:13;6.67;;;4.57;;
65172;SDS011;51758;52.218;5.172;2023-03-01T11:17:01;6.07;;;4.30;;
65172;SDS011;51758;52.218;5.172;2023-03-01T11:19:31;7.60;;;5.05;;
65172;SDS011;51758;52.218;5.172;2023-03-01T11:24:34;7.67;;;4.47;;
65172;SDS011;51758;52.218;5.172;2023-03-01T11:27:15;7.37;;;4.67;;
65172;SDS011;51758;52.218;5.172;2023-03-01T11:29:46;9.57;;;5.00;;
65172;SDS011;51758;52.218;5.172;2023-03-01T11:32:20;7.47;;;4.83;;
65172;SDS011;51758;52.218;5.172;2023-03-01T11:34:53;8.07;;;4.60;;
65172;SDS011;51758;52.218;5.172;2023-03-01T11:37:35;6.70;;;4.67;;
65172;SDS011;51758;52.218;5.172;2023-03-01T11:40:11;6.70;;;4.87;;
65172;SDS011;51758;52.218;5.172;2023-03-01T11:42:46;7.67;;;5.10;;
65172;SDS011;51758;52.218;5.172;2023-03-01T11:45:21;6.68;;;4.28;;
65172;SDS011;51758;52.218;5.172;2023-03-01T11:47:58;6.37;;;4.60;;
65172;SDS011;51758;52.218;5.172;2023-03-01T11:50:35;7.10;;;4.93;;
65172;SDS011;51758;52.218;5.172;2023-03-01T11:53:14;6.83;;;4.87;;
65172;SDS011;51758;52.218;5.172;2023-03-01T11:55:58;6.07;;;4.67;;
65172;SDS011;51758;52.218;5.172;2023-03-01T11:58:37;5.60;;;4.63;;
65172;SDS011;51758;52.218;5.172;2023-03-01T12:01:23;7.10;;;4.70;;
65172;SDS011;51758;52.218;5.172;2023-03-01T12:04:15;6.23;;;4.30;;
65172;SDS011;51758;52.218;5.172;2023-03-01T12:06:59;7.82;;;4.78;;
65172;SDS011;51758;52.218;5.172;2023-03-01T12:09:34;5.60;;;4.80;;
65172;SDS011;51758;52.218;5.172;2023-03-01T12:15:11;5.60;;;4.72;;
65172;SDS011;51758;52.218;5.172;2023-03-01T12:17:55;6.47;;;4.72;;
65172;SDS011;51758;52.218;5.172;2023-03-01T12:20:32;6.97;;;5.05;;
65172;SDS011;51758;52.218;5.172;2023-03-01T12:23:13;8.60;;;5.30;;
65172;SDS011;51758;52.218;5.172;2023-03-01T12:25:52;6.97;;;5.22;;
65172;SDS011;51758;52.218;5.172;2023-03-01T12:28:27;6.30;;;5.20;;
65172;SDS011;51758;52.218;5.172;2023-03-01T12:31:15;5.32;;;4.63;;
65172;SDS011;51758;52.218;5.172;2023-03-01T12:33:59;6.22;;;4.20;;
65172;SDS011;51758;52.218;5.172;2023-03-01T12:36:43;6.30;;;4.43;;
65172;SDS011;51758;52.218;5.172;2023-03-01T12:39:35;4.88;;;3.85;;
65172;SDS011;51758;52.218;5.172;2023-03-01T12:42:14;5.32;;;4.00;;
65172;SDS011;51758;52.218;5.172;2023-03-01T12:44:57;5.38;;;3.95;;
65172;SDS011;51758;52.218;5.172;2023-03-01T12:50:48;6.63;;;4.40;;
65172;SDS011;51758;52.218;5.172;2023-03-01T12:53:22;7.25;;;3.97;;
65172;SDS011;51758;52.218;5.172;2023-03-01T12:55:53;5.10;;;3.95;;
65172;SDS011;51758;52.218;5.172;2023-03-01T12:58:24;5.88;;;3.85;;
65172;SDS011;51758;52.218;5.172;2023-03-01T13:01:16;6.40;;;3.97;;
65172;SDS011;51758;52.218;5.172;2023-03-01T13:04:02;4.25;;;3.55;;
65172;SDS011;51758;52.218;5.172;2023-03-01T13:06:39;5.63;;;3.85;;
65172;SDS011;51758;52.218;5.172;2023-03-01T13:09:17;5.85;;;3.45;;
65172;SDS011;51758;52.218;5.172;2023-03-01T13:11:50;5.82;;;4.22;;
65172;SDS011;51758;52.218;5.172;2023-03-01T13:17:40;6.22;;;3.90;;
65172;SDS011;51758;52.218;5.172;2023-03-01T13:20:26;4.97;;;4.05;;
65172;SDS011;51758;52.218;5.172;2023-03-01T13:23:05;5.72;;;3.80;;
65172;SDS011;51758;52.218;5.172;2023-03-01T13:28:39;5.68;;;3.97;;
65172;SDS011;51758;52.218;5.172;2023-03-01T13:35:00;5.20;;;4.28;;
65172;SDS011;51758;52.218;5.172;2023-03-01T13:38:01;5.03;;;4.20;;
65172;SDS011;51758;52.218;5.172;2023-03-01T13:41:16;4.77;;;3.77;;
65172;SDS011;51758;52.218;5.172;2023-03-01T13:44:20;5.67;;;4.00;;
65172;SDS011;51758;52.218;5.172;2023-03-01T13:46:57;9.67;;;4.43;;
65172;SDS011;51758;52.218;5.172;2023-03-01T13:49:27;8.57;;;4.13;;
65172;SDS011;51758;52.218;5.172;2023-03-01T13:52:23;6.03;;;4.13;;
65172;SDS011;51758;52.218;5.172;2023-03-01T13:55:03;7.20;;;4.07;;
65172;SDS011;51758;52.218;5.172;2023-03-01T13:57:34;9.00;;;4.63;;
65172;SDS011;51758;52.218;5.172;2023-03-01T14:00:06;7.37;;;4.40;;
65172;SDS011;51758;52.218;5.172;2023-03-01T14:02:34;5.80;;;4.40;;
65172;SDS011;51758;52.218;5.172;2023-03-01T14:05:03;6.13;;;3.90;;
65172;SDS011;51758;52.218;5.172;2023-03-01T14:07:37;7.87;;;4.00;;
65172;SDS011;51758;52.218;5.172;2023-03-01T14:10:07;5.77;;;4.37;;
65172;SDS011;51758;52.218;5.172;2023-03-01T14:12:42;6.13;;;4.07;;
65172;SDS011;51758;52.218;5.172;2023-03-01T14:15:17;6.20;;;4.13;;
65172;SDS011;51758;52.218;5.172;2023-03-01T14:17:52;7.40;;;4.50;;
65172;SDS011;51758;52.218;5.172;2023-03-01T14:20:29;5.75;;;4.00;;
65172;SDS011;51758;52.218;5.172;2023-03-01T14:23:02;8.53;;;4.40;;
65172;SDS011;51758;52.218;5.172;2023-03-01T14:25:38;5.10;;;3.97;;
65172;SDS011;51758;52.218;5.172;2023-03-01T14:28:15;6.90;;;4.33;;
65172;SDS011;51758;52.218;5.172;2023-03-01T14:30:47;5.20;;;3.77;;
65172;SDS011;51758;52.218;5.172;2023-03-01T14:33:20;4.87;;;3.87;;
65172;SDS011;51758;52.218;5.172;2023-03-01T14:35:53;5.40;;;4.10;;
65172;SDS011;51758;52.218;5.172;2023-03-01T14:38:27;6.63;;;4.27;;
65172;SDS011;51758;52.218;5.172;2023-03-01T14:40:58;4.60;;;4.03;;
65172;SDS011;51758;52.218;5.172;2023-03-01T14:43:33;6.17;;;3.97;;
65172;SDS011;51758;52.218;5.172;2023-03-01T14:46:02;5.83;;;3.87;;
65172;SDS011;51758;52.218;5.172;2023-03-01T14:48:30;7.50;;;4.47;;
65172;SDS011;51758;52.218;5.172;2023-03-01T14:50:59;7.10;;;4.35;;
65172;SDS011;51758;52.218;5.172;2023-03-01T14:53:27;8.20;;;4.27;;
65172;SDS011;51758;52.218;5.172;2023-03-01T14:56:15;6.63;;;4.13;;
65172;SDS011;51758;52.218;5.172;2023-03-01T14:58:45;5.27;;;4.30;;
65172;SDS011;51758;52.218;5.172;2023-03-01T15:01:14;5.73;;;3.77;;
65172;SDS011;51758;52.218;5.172;2023-03-01T15:03:44;9.40;;;4.40;;
65172;SDS011;51758;52.218;5.172;2023-03-01T15:06:14;6.80;;;4.53;;
65172;SDS011;51758;52.218;5.172;2023-03-01T15:08:45;7.20;;;4.60;;
65172;SDS011;51758;52.218;5.172;2023-03-01T15:11:19;4.87;;;3.80;;
65172;SDS011;51758;52.218;5.172;2023-03-01T15:13:52;7.93;;;4.47;;
65172;SDS011;51758;52.218;5.172;2023-03-01T15:16:21;6.70;;;4.60;;
65172;SDS011;51758;52.218;5.172;2023-03-01T15:18:52;7.43;;;4.43;;
65172;SDS011;51758;52.218;5.172;2023-03-01T15:21:23;8.13;;;4.63;;
65172;SDS011;51758;52.218;5.172;2023-03-01T15:23:54;8.43;;;4.43;;
65172;SDS011;51758;52.218;5.172;2023-03-01T15:26:24;6.80;;;4.40;;